sensor_id;sensor_type;location;lat;lon;timestamp;temperature;humidity
44461;DHT22;30162;53.642;10.640;2022-12-10T00:01:44;3.40;92.10
44461;DHT22;30162;53.642;10.640;2022-12-10T00:04:11;3.40;92.20
44461;DHT22;30162;53.642;10.640;2022-12-10T00:06:37;3.50;92.20
44461;DHT22;30162;53.642;10.640;2022-12-10T00:09:06;3.50;92.20
44461;DHT22;30162;53.642;10.640;2022-12-10T00:11:32;3.60;91.90
44461;DHT22;30162;53.642;10.640;2022-12-10T00:13:58;3.70;92.10
44461;DHT22;30162;53.642;10.640;2022-12-10T00:16:25;3.80;91.90
44461;DHT22;30162;53.642;10.640;2022-12-10T00:18:52;3.80;91.70
44461;DHT22;30162;53.642;10.640;2022-12-10T00:21:23;3.80;92.00
44461;DHT22;30162;53.642;10.640;2022-12-10T00:23:49;3.90;91.90
44461;DHT22;30162;53.642;10.640;2022-12-10T00:26:18;3.90;91.90
44461;DHT22;30162;53.642;10.640;2022-12-10T00:28:44;3.90;91.80
44461;DHT22;30162;53.642;10.640;2022-12-10T00:31:15;3.90;91.60
44461;DHT22;30162;53.642;10.640;2022-12-10T00:33:43;4.10;92.00
44461;DHT22;30162;53.642;10.640;2022-12-10T00:36:14;4.10;91.80
44461;DHT22;30162;53.642;10.640;2022-12-10T00:38:41;4.10;91.50
44461;DHT22;30162;53.642;10.640;2022-12-10T00:41:07;4.00;91.10
44461;DHT22;30162;53.642;10.640;2022-12-10T00:43:33;3.90;90.90
44461;DHT22;30162;53.642;10.640;2022-12-10T00:45:59;4.00;91.00
44461;DHT22;30162;53.642;10.640;2022-12-10T00:48:25;3.90;91.00
44461;DHT22;30162;53.642;10.640;2022-12-10T00:51:09;3.90;91.30
44461;DHT22;30162;53.642;10.640;2022-12-10T00:53:37;3.80;91.00
44461;DHT22;30162;53.642;10.640;2022-12-10T00:56:03;3.60;91.30
44461;DHT22;30162;53.642;10.640;2022-12-10T00:58:31;3.50;91.10
44461;DHT22;30162;53.642;10.640;2022-12-10T01:03:55;3.70;91.00
44461;DHT22;30162;53.642;10.640;2022-12-10T01:06:22;3.90;91.20
44461;DHT22;30162;53.642;10.640;2022-12-10T01:08:49;4.00;91.00
44461;DHT22;30162;53.642;10.640;2022-12-10T01:11:18;4.00;90.90
44461;DHT22;30162;53.642;10.640;2022-12-10T01:13:44;4.10;91.20
44461;DHT22;30162;53.642;10.640;2022-12-10T01:16:12;3.90;90.80
44461;DHT22;30162;53.642;10.640;2022-12-10T01:18:38;3.90;90.80
44461;DHT22;30162;53.642;10.640;2022-12-10T01:21:10;3.80;91.00
44461;DHT22;30162;53.642;10.640;2022-12-10T01:23:38;3.90;91.30
44461;DHT22;30162;53.642;10.640;2022-12-10T01:26:05;4.20;90.80
44461;DHT22;30162;53.642;10.640;2022-12-10T01:28:33;4.20;90.80
44461;DHT22;30162;53.642;10.640;2022-12-10T01:31:04;4.10;90.50
44461;DHT22;30162;53.642;10.640;2022-12-10T01:33:30;4.00;90.40
44461;DHT22;30162;53.642;10.640;2022-12-10T01:36:01;4.00;90.50
44461;DHT22;30162;53.642;10.640;2022-12-10T01:38:26;3.90;91.00
44461;DHT22;30162;53.642;10.640;2022-12-10T01:40:52;3.90;90.60
44461;DHT22;30162;53.642;10.640;2022-12-10T01:43:17;3.80;90.80
44461;DHT22;30162;53.642;10.640;2022-12-10T01:45:43;3.80;90.80
44461;DHT22;30162;53.642;10.640;2022-12-10T01:48:08;3.80;91.00
44461;DHT22;30162;53.642;10.640;2022-12-10T01:50:34;3.90;90.80
44461;DHT22;30162;53.642;10.640;2022-12-10T01:53:00;3.90;90.60
44461;DHT22;30162;53.642;10.640;2022-12-10T01:55:49;3.90;90.90
44461;DHT22;30162;53.642;10.640;2022-12-10T01:58:18;3.90;90.30
44461;DHT22;30162;53.642;10.640;2022-12-10T02:03:40;3.80;91.30
44461;DHT22;30162;53.642;10.640;2022-12-10T02:06:31;4.00;91.00
44461;DHT22;30162;53.642;10.640;2022-12-10T02:09:42;3.90;90.90
44461;DHT22;30162;53.642;10.640;2022-12-10T02:15:12;4.00;90.80
44461;DHT22;30162;53.642;10.640;2022-12-10T02:20:26;3.90;90.70
44461;DHT22;30162;53.642;10.640;2022-12-10T02:22:55;3.90;90.60
44461;DHT22;30162;53.642;10.640;2022-12-10T02:29:13;3.80;90.50
44461;DHT22;30162;53.642;10.640;2022-12-10T02:31:23;3.90;91.20
44461;DHT22;30162;53.642;10.640;2022-12-10T02:33:53;4.00;90.00
44461;DHT22;30162;53.642;10.640;2022-12-10T02:36:21;3.90;90.00
44461;DHT22;30162;53.642;10.640;2022-12-10T02:38:49;3.70;90.50
44461;DHT22;30162;53.642;10.640;2022-12-10T02:41:28;3.60;90.70
44461;DHT22;30162;53.642;10.640;2022-12-10T02:43:56;3.60;90.70
44461;DHT22;30162;53.642;10.640;2022-12-10T02:46:24;3.60;90.70
44461;DHT22;30162;53.642;10.640;2022-12-10T02:48:54;3.50;90.90
44461;DHT22;30162;53.642;10.640;2022-12-10T02:51:20;3.40;91.00
44461;DHT22;30162;53.642;10.640;2022-12-10T02:53:46;3.50;91.00
44461;DHT22;30162;53.642;10.640;2022-12-10T02:56:22;3.70;91.30
44461;DHT22;30162;53.642;10.640;2022-12-10T02:59:19;3.80;91.10
44461;DHT22;30162;53.642;10.640;2022-12-10T03:02:12;3.50;90.50
44461;DHT22;30162;53.642;10.640;2022-12-10T03:04:47;3.40;90.90
44461;DHT22;30162;53.642;10.640;2022-12-10T03:07:28;3.50;91.30
44461;DHT22;30162;53.642;10.640;2022-12-10T03:10:04;3.50;91.10
44461;DHT22;30162;53.642;10.640;2022-12-10T03:12:37;3.50;91.30
44461;DHT22;30162;53.642;10.640;2022-12-10T03:15:08;3.60;91.00
44461;DHT22;30162;53.642;10.640;2022-12-10T03:17:37;3.50;91.00
44461;DHT22;30162;53.642;10.640;2022-12-10T03:20:04;3.60;91.10
44461;DHT22;30162;53.642;10.640;2022-12-10T03:22:33;3.60;91.00
44461;DHT22;30162;53.642;10.640;2022-12-10T03:25:00;3.60;90.60
44461;DHT22;30162;53.642;10.640;2022-12-10T03:27:29;3.60;90.70
44461;DHT22;30162;53.642;10.640;2022-12-10T03:29:56;3.70;90.40
44461;DHT22;30162;53.642;10.640;2022-12-10T03:32:25;3.70;90.70
44461;DHT22;30162;53.642;10.640;2022-12-10T03:34:53;3.70;90.90
44461;DHT22;30162;53.642;10.640;2022-12-10T03:37:21;3.70;90.70
44461;DHT22;30162;53.642;10.640;2022-12-10T03:39:47;3.80;90.70
44461;DHT22;30162;53.642;10.640;2022-12-10T03:42:12;3.80;90.70
44461;DHT22;30162;53.642;10.640;2022-12-10T03:44:38;3.80;90.60
44461;DHT22;30162;53.642;10.640;2022-12-10T03:47:07;3.70;90.50
44461;DHT22;30162;53.642;10.640;2022-12-10T03:49:36;3.70;90.50
44461;DHT22;30162;53.642;10.640;2022-12-10T03:52:02;3.80;90.40
44461;DHT22;30162;53.642;10.640;2022-12-10T03:54:28;3.80;90.70
44461;DHT22;30162;53.642;10.640;2022-12-10T03:56:54;3.80;90.80
44461;DHT22;30162;53.642;10.640;2022-12-10T03:59:19;3.80;90.30
44461;DHT22;30162;53.642;10.640;2022-12-10T04:01:45;3.60;90.60
44461;DHT22;30162;53.642;10.640;2022-12-10T04:04:10;3.60;90.30
44461;DHT22;30162;53.642;10.640;2022-12-10T04:06:40;3.60;90.70
44461;DHT22;30162;53.642;10.640;2022-12-10T04:09:08;3.80;90.20
44461;DHT22;30162;53.642;10.640;2022-12-10T04:11:34;3.60;90.50
44461;DHT22;30162;53.642;10.640;2022-12-10T04:13:59;3.60;90.90
44461;DHT22;30162;53.642;10.640;2022-12-10T04:16:43;3.60;91.00
44461;DHT22;30162;53.642;10.640;2022-12-10T04:19:11;3.60;90.80
44461;DHT22;30162;53.642;10.640;2022-12-10T04:21:38;3.60;90.80
44461;DHT22;30162;53.642;10.640;2022-12-10T04:24:25;3.70;90.60
44461;DHT22;30162;53.642;10.640;2022-12-10T04:27:29;3.50;90.70
44461;DHT22;30162;53.642;10.640;2022-12-10T04:29:56;3.60;90.90
44461;DHT22;30162;53.642;10.640;2022-12-10T04:32:24;3.50;90.80
44461;DHT22;30162;53.642;10.640;2022-12-10T04:34:50;3.40;91.10
44461;DHT22;30162;53.642;10.640;2022-12-10T04:37:16;3.30;90.90
44461;DHT22;30162;53.642;10.640;2022-12-10T04:39:42;3.40;91.00
44461;DHT22;30162;53.642;10.640;2022-12-10T04:42:08;3.50;90.60
44461;DHT22;30162;53.642;10.640;2022-12-10T04:44:34;3.50;90.80
44461;DHT22;30162;53.642;10.640;2022-12-10T04:47:00;3.60;90.90
44461;DHT22;30162;53.642;10.640;2022-12-10T04:49:26;3.50;90.60
44461;DHT22;30162;53.642;10.640;2022-12-10T04:51:51;3.60;90.40
44461;DHT22;30162;53.642;10.640;2022-12-10T04:54:18;3.60;90.70
44461;DHT22;30162;53.642;10.640;2022-12-10T04:56:44;3.60;90.90
44461;DHT22;30162;53.642;10.640;2022-12-10T04:59:10;3.50;90.70
44461;DHT22;30162;53.642;10.640;2022-12-10T05:01:36;3.60;91.00
44461;DHT22;30162;53.642;10.640;2022-12-10T05:04:04;3.50;90.90
44461;DHT22;30162;53.642;10.640;2022-12-10T05:06:30;3.70;91.00
44461;DHT22;30162;53.642;10.640;2022-12-10T05:08:56;3.50;90.60
44461;DHT22;30162;53.642;10.640;2022-12-10T05:11:24;3.40;91.20
44461;DHT22;30162;53.642;10.640;2022-12-10T05:13:50;3.20;91.00
44461;DHT22;30162;53.642;10.640;2022-12-10T05:16:18;3.20;91.40
44461;DHT22;30162;53.642;10.640;2022-12-10T05:18:44;3.20;91.00
44461;DHT22;30162;53.642;10.640;2022-12-10T05:21:12;3.40;91.30
44461;DHT22;30162;53.642;10.640;2022-12-10T05:23:41;3.50;91.20
44461;DHT22;30162;53.642;10.640;2022-12-10T05:26:08;3.40;90.90
44461;DHT22;30162;53.642;10.640;2022-12-10T05:28:39;3.60;90.90
44461;DHT22;30162;53.642;10.640;2022-12-10T05:31:10;3.60;91.00
44461;DHT22;30162;53.642;10.640;2022-12-10T05:33:36;3.60;90.90
44461;DHT22;30162;53.642;10.640;2022-12-10T05:36:03;3.40;90.70
44461;DHT22;30162;53.642;10.640;2022-12-10T05:38:30;3.50;90.70
44461;DHT22;30162;53.642;10.640;2022-12-10T05:41:01;3.40;90.90
44461;DHT22;30162;53.642;10.640;2022-12-10T05:43:27;3.50;90.80
44461;DHT22;30162;53.642;10.640;2022-12-10T05:45:52;3.60;90.80
44461;DHT22;30162;53.642;10.640;2022-12-10T05:48:18;3.60;90.70
44461;DHT22;30162;53.642;10.640;2022-12-10T05:50:43;3.50;90.90
44461;DHT22;30162;53.642;10.640;2022-12-10T05:53:09;3.40;90.90
44461;DHT22;30162;53.642;10.640;2022-12-10T05:55:35;3.30;91.10
44461;DHT22;30162;53.642;10.640;2022-12-10T05:58:00;3.40;91.40
44461;DHT22;30162;53.642;10.640;2022-12-10T06:00:27;3.60;91.20
44461;DHT22;30162;53.642;10.640;2022-12-10T06:02:53;3.60;90.60
44461;DHT22;30162;53.642;10.640;2022-12-10T06:05:19;3.40;90.90
44461;DHT22;30162;53.642;10.640;2022-12-10T06:07:44;3.30;91.10
44461;DHT22;30162;53.642;10.640;2022-12-10T06:10:10;3.30;91.20
44461;DHT22;30162;53.642;10.640;2022-12-10T06:12:36;3.40;91.30
44461;DHT22;30162;53.642;10.640;2022-12-10T06:15:03;3.30;91.00
44461;DHT22;30162;53.642;10.640;2022-12-10T06:17:29;3.30;91.30
44461;DHT22;30162;53.642;10.640;2022-12-10T06:19:54;3.50;91.40
44461;DHT22;30162;53.642;10.640;2022-12-10T06:22:20;3.30;90.80
44461;DHT22;30162;53.642;10.640;2022-12-10T06:24:45;3.40;91.50
44461;DHT22;30162;53.642;10.640;2022-12-10T06:27:11;3.40;91.60
44461;DHT22;30162;53.642;10.640;2022-12-10T06:29:36;3.50;91.60
44461;DHT22;30162;53.642;10.640;2022-12-10T06:32:02;3.50;91.40
44461;DHT22;30162;53.642;10.640;2022-12-10T06:34:28;3.40;91.30
44461;DHT22;30162;53.642;10.640;2022-12-10T06:36:53;3.40;91.50
44461;DHT22;30162;53.642;10.640;2022-12-10T06:39:19;3.50;91.40
44461;DHT22;30162;53.642;10.640;2022-12-10T06:41:44;3.50;91.50
44461;DHT22;30162;53.642;10.640;2022-12-10T06:44:11;3.50;91.40
44461;DHT22;30162;53.642;10.640;2022-12-10T06:46:37;3.60;91.40
44461;DHT22;30162;53.642;10.640;2022-12-10T06:49:03;3.70;91.10
44461;DHT22;30162;53.642;10.640;2022-12-10T06:51:29;3.60;91.10
44461;DHT22;30162;53.642;10.640;2022-12-10T06:53:55;3.60;91.10
44461;DHT22;30162;53.642;10.640;2022-12-10T06:56:21;3.50;91.30
44461;DHT22;30162;53.642;10.640;2022-12-10T06:58:47;3.60;91.30
44461;DHT22;30162;53.642;10.640;2022-12-10T07:01:18;3.40;91.00
44461;DHT22;30162;53.642;10.640;2022-12-10T07:03:50;3.30;91.30
44461;DHT22;30162;53.642;10.640;2022-12-10T07:06:17;3.30;91.80
44461;DHT22;30162;53.642;10.640;2022-12-10T07:08:43;3.70;91.50
44461;DHT22;30162;53.642;10.640;2022-12-10T07:11:11;3.70;90.60
44461;DHT22;30162;53.642;10.640;2022-12-10T07:13:38;3.80;90.80
44461;DHT22;30162;53.642;10.640;2022-12-10T07:16:25;3.80;90.60
44461;DHT22;30162;53.642;10.640;2022-12-10T07:18:52;3.90;90.70
44461;DHT22;30162;53.642;10.640;2022-12-10T07:23:52;3.80;90.70
44461;DHT22;30162;53.642;10.640;2022-12-10T07:26:19;3.70;90.60
44461;DHT22;30162;53.642;10.640;2022-12-10T07:28:45;3.70;90.70
44461;DHT22;30162;53.642;10.640;2022-12-10T07:31:10;3.70;90.70
44461;DHT22;30162;53.642;10.640;2022-12-10T07:33:36;3.70;90.60
44461;DHT22;30162;53.642;10.640;2022-12-10T07:36:10;3.50;90.70
44461;DHT22;30162;53.642;10.640;2022-12-10T07:38:36;3.50;90.70
44461;DHT22;30162;53.642;10.640;2022-12-10T07:41:07;3.50;91.20
44461;DHT22;30162;53.642;10.640;2022-12-10T07:43:35;3.70;90.70
44461;DHT22;30162;53.642;10.640;2022-12-10T07:46:11;3.60;90.40
44461;DHT22;30162;53.642;10.640;2022-12-10T07:48:38;3.60;90.70
44461;DHT22;30162;53.642;10.640;2022-12-10T07:51:04;3.70;90.80
44461;DHT22;30162;53.642;10.640;2022-12-10T07:53:30;3.70;90.30
44461;DHT22;30162;53.642;10.640;2022-12-10T07:55:56;3.50;90.40
44461;DHT22;30162;53.642;10.640;2022-12-10T07:58:21;3.40;90.40
44461;DHT22;30162;53.642;10.640;2022-12-10T08:00:47;3.50;90.40
44461;DHT22;30162;53.642;10.640;2022-12-10T08:03:12;3.50;90.40
44461;DHT22;30162;53.642;10.640;2022-12-10T08:05:38;3.60;90.70
44461;DHT22;30162;53.642;10.640;2022-12-10T08:08:04;3.80;90.20
44461;DHT22;30162;53.642;10.640;2022-12-10T08:10:29;3.50;90.10
44461;DHT22;30162;53.642;10.640;2022-12-10T08:12:55;3.50;90.70
44461;DHT22;30162;53.642;10.640;2022-12-10T08:15:20;3.60;90.20
44461;DHT22;30162;53.642;10.640;2022-12-10T08:17:46;3.50;90.60
44461;DHT22;30162;53.642;10.640;2022-12-10T08:20:12;3.60;90.60
44461;DHT22;30162;53.642;10.640;2022-12-10T08:22:37;3.70;90.40
44461;DHT22;30162;53.642;10.640;2022-12-10T08:25:04;3.70;90.30
44461;DHT22;30162;53.642;10.640;2022-12-10T08:27:30;3.50;90.10
44461;DHT22;30162;53.642;10.640;2022-12-10T08:29:55;3.30;90.20
44461;DHT22;30162;53.642;10.640;2022-12-10T08:32:21;3.20;90.70
44461;DHT22;30162;53.642;10.640;2022-12-10T08:34:46;3.10;90.70
44461;DHT22;30162;53.642;10.640;2022-12-10T08:37:12;3.20;90.70
44461;DHT22;30162;53.642;10.640;2022-12-10T08:39:38;3.20;90.90
44461;DHT22;30162;53.642;10.640;2022-12-10T08:42:03;3.40;91.00
44461;DHT22;30162;53.642;10.640;2022-12-10T08:44:29;3.40;90.40
44461;DHT22;30162;53.642;10.640;2022-12-10T08:46:54;3.50;90.50
44461;DHT22;30162;53.642;10.640;2022-12-10T08:49:20;3.30;90.30
44461;DHT22;30162;53.642;10.640;2022-12-10T08:51:46;3.20;90.50
44461;DHT22;30162;53.642;10.640;2022-12-10T08:54:12;3.40;90.70
44461;DHT22;30162;53.642;10.640;2022-12-10T08:56:37;3.40;90.20
44461;DHT22;30162;53.642;10.640;2022-12-10T08:59:05;3.30;90.40
44461;DHT22;30162;53.642;10.640;2022-12-10T09:01:31;3.20;90.20
44461;DHT22;30162;53.642;10.640;2022-12-10T09:03:57;3.30;90.50
44461;DHT22;30162;53.642;10.640;2022-12-10T09:06:23;3.30;90.60
44461;DHT22;30162;53.642;10.640;2022-12-10T09:08:52;3.40;90.50
44461;DHT22;30162;53.642;10.640;2022-12-10T09:11:30;3.30;90.20
44461;DHT22;30162;53.642;10.640;2022-12-10T09:13:56;3.20;90.20
44461;DHT22;30162;53.642;10.640;2022-12-10T09:16:34;3.40;90.30
44461;DHT22;30162;53.642;10.640;2022-12-10T09:19:00;3.50;89.30
44461;DHT22;30162;53.642;10.640;2022-12-10T09:21:26;3.50;90.20
44461;DHT22;30162;53.642;10.640;2022-12-10T09:23:52;3.60;89.80
44461;DHT22;30162;53.642;10.640;2022-12-10T09:26:18;3.60;88.80
44461;DHT22;30162;53.642;10.640;2022-12-10T09:28:44;3.70;89.10
44461;DHT22;30162;53.642;10.640;2022-12-10T09:31:12;3.60;89.20
44461;DHT22;30162;53.642;10.640;2022-12-10T09:33:39;3.60;89.60
44461;DHT22;30162;53.642;10.640;2022-12-10T09:36:06;3.60;89.60
44461;DHT22;30162;53.642;10.640;2022-12-10T09:38:34;3.70;89.20
44461;DHT22;30162;53.642;10.640;2022-12-10T09:41:02;3.60;88.80
44461;DHT22;30162;53.642;10.640;2022-12-10T09:43:55;3.50;89.80
44461;DHT22;30162;53.642;10.640;2022-12-10T09:46:25;3.50;90.10
44461;DHT22;30162;53.642;10.640;2022-12-10T09:51:29;3.50;90.20
44461;DHT22;30162;53.642;10.640;2022-12-10T09:53:57;3.50;90.40
44461;DHT22;30162;53.642;10.640;2022-12-10T09:56:32;3.50;90.10
44461;DHT22;30162;53.642;10.640;2022-12-10T09:59:03;3.50;90.20
44461;DHT22;30162;53.642;10.640;2022-12-10T10:01:33;3.40;89.90
44461;DHT22;30162;53.642;10.640;2022-12-10T10:04:00;3.50;90.30
44461;DHT22;30162;53.642;10.640;2022-12-10T10:06:27;3.40;90.10
44461;DHT22;30162;53.642;10.640;2022-12-10T10:08:56;3.60;90.10
44461;DHT22;30162;53.642;10.640;2022-12-10T10:11:27;3.60;90.00
44461;DHT22;30162;53.642;10.640;2022-12-10T10:13:57;3.70;90.00
44461;DHT22;30162;53.642;10.640;2022-12-10T10:19:21;3.60;89.60
44461;DHT22;30162;53.642;10.640;2022-12-10T10:21:50;3.70;90.10
44461;DHT22;30162;53.642;10.640;2022-12-10T10:24:28;3.80;90.10
44461;DHT22;30162;53.642;10.640;2022-12-10T10:26:58;3.70;88.10
44461;DHT22;30162;53.642;10.640;2022-12-10T10:29:26;3.50;89.60
44461;DHT22;30162;53.642;10.640;2022-12-10T10:32:18;3.50;89.70
44461;DHT22;30162;53.642;10.640;2022-12-10T10:34:45;3.40;89.70
44461;DHT22;30162;53.642;10.640;2022-12-10T10:37:23;3.10;89.70
44461;DHT22;30162;53.642;10.640;2022-12-10T10:39:51;3.20;90.30
44461;DHT22;30162;53.642;10.640;2022-12-10T10:42:41;3.30;90.50
44461;DHT22;30162;53.642;10.640;2022-12-10T10:48:16;3.40;90.50
44461;DHT22;30162;53.642;10.640;2022-12-10T10:55:48;3.30;90.50
44461;DHT22;30162;53.642;10.640;2022-12-10T10:58:20;3.40;90.40
44461;DHT22;30162;53.642;10.640;2022-12-10T11:01:01;3.50;89.30
44461;DHT22;30162;53.642;10.640;2022-12-10T11:03:29;3.60;90.00
44461;DHT22;30162;53.642;10.640;2022-12-10T11:05:57;3.60;89.80
44461;DHT22;30162;53.642;10.640;2022-12-10T11:08:25;3.70;89.20
44461;DHT22;30162;53.642;10.640;2022-12-10T11:11:12;3.60;89.80
44461;DHT22;30162;53.642;10.640;2022-12-10T11:13:42;3.70;89.60
44461;DHT22;30162;53.642;10.640;2022-12-10T11:16:12;3.60;88.80
44461;DHT22;30162;53.642;10.640;2022-12-10T11:19:01;3.50;89.80
44461;DHT22;30162;53.642;10.640;2022-12-10T11:21:29;3.30;90.00
44461;DHT22;30162;53.642;10.640;2022-12-10T11:23:56;3.40;90.20
44461;DHT22;30162;53.642;10.640;2022-12-10T11:26:31;3.40;90.10
44461;DHT22;30162;53.642;10.640;2022-12-10T11:29:02;3.30;89.60
44461;DHT22;30162;53.642;10.640;2022-12-10T11:31:43;3.20;90.10
44461;DHT22;30162;53.642;10.640;2022-12-10T11:37:15;3.20;90.40
44461;DHT22;30162;53.642;10.640;2022-12-10T11:58:25;3.30;89.40
44461;DHT22;30162;53.642;10.640;2022-12-10T12:06:58;3.20;90.20
44461;DHT22;30162;53.642;10.640;2022-12-10T12:15:05;3.30;90.00
44461;DHT22;30162;53.642;10.640;2022-12-10T12:17:43;3.50;90.10
44461;DHT22;30162;53.642;10.640;2022-12-10T12:20:28;3.50;89.10
44461;DHT22;30162;53.642;10.640;2022-12-10T12:23:11;3.30;89.40
44461;DHT22;30162;53.642;10.640;2022-12-10T12:25:42;3.20;89.60
44461;DHT22;30162;53.642;10.640;2022-12-10T12:28:28;3.00;89.80
44461;DHT22;30162;53.642;10.640;2022-12-10T12:31:05;2.90;90.70
44461;DHT22;30162;53.642;10.640;2022-12-10T12:33:41;2.90;90.90
44461;DHT22;30162;53.642;10.640;2022-12-10T12:36:16;3.10;91.00
44461;DHT22;30162;53.642;10.640;2022-12-10T12:47:32;3.00;89.00
44461;DHT22;30162;53.642;10.640;2022-12-10T12:50:02;3.30;90.00
44461;DHT22;30162;53.642;10.640;2022-12-10T12:52:40;3.20;88.60
44461;DHT22;30162;53.642;10.640;2022-12-10T12:55:42;3.00;89.50
44461;DHT22;30162;53.642;10.640;2022-12-10T12:58:19;3.10;89.80
44461;DHT22;30162;53.642;10.640;2022-12-10T13:00:49;3.10;89.10
44461;DHT22;30162;53.642;10.640;2022-12-10T13:03:36;3.10;90.10
44461;DHT22;30162;53.642;10.640;2022-12-10T13:06:23;3.00;89.00
44461;DHT22;30162;53.642;10.640;2022-12-10T13:14:28;3.30;88.90
44461;DHT22;30162;53.642;10.640;2022-12-10T13:18:00;3.20;89.00
44461;DHT22;30162;53.642;10.640;2022-12-10T13:25:41;3.40;89.00
44461;DHT22;30162;53.642;10.640;2022-12-10T13:36:52;3.30;88.70
44461;DHT22;30162;53.642;10.640;2022-12-10T13:50:05;3.30;89.50
44461;DHT22;30162;53.642;10.640;2022-12-10T13:55:26;3.30;90.10
44461;DHT22;30162;53.642;10.640;2022-12-10T14:07:08;3.00;90.10
44461;DHT22;30162;53.642;10.640;2022-12-10T14:09:45;3.00;90.50
44461;DHT22;30162;53.642;10.640;2022-12-10T14:12:16;3.10;90.50
44461;DHT22;30162;53.642;10.640;2022-12-10T14:14:47;3.30;89.50
44461;DHT22;30162;53.642;10.640;2022-12-10T14:17:20;3.40;89.30
44461;DHT22;30162;53.642;10.640;2022-12-10T14:19:49;3.30;88.70
44461;DHT22;30162;53.642;10.640;2022-12-10T14:22:31;3.40;88.10
44461;DHT22;30162;53.642;10.640;2022-12-10T14:25:00;3.30;88.20
44461;DHT22;30162;53.642;10.640;2022-12-10T14:27:28;3.10;89.00
44461;DHT22;30162;53.642;10.640;2022-12-10T14:30:15;2.80;88.70
44461;DHT22;30162;53.642;10.640;2022-12-10T14:32:40;2.80;90.00
44461;DHT22;30162;53.642;10.640;2022-12-10T14:35:15;2.90;89.80
44461;DHT22;30162;53.642;10.640;2022-12-10T14:37:43;2.90;89.80
44461;DHT22;30162;53.642;10.640;2022-12-10T14:40:28;3.20;90.00
44461;DHT22;30162;53.642;10.640;2022-12-10T14:43:02;3.30;89.40
44461;DHT22;30162;53.642;10.640;2022-12-10T14:45:38;3.00;88.90
44461;DHT22;30162;53.642;10.640;2022-12-10T14:48:05;3.00;89.80
44461;DHT22;30162;53.642;10.640;2022-12-10T14:50:34;3.00;90.10
44461;DHT22;30162;53.642;10.640;2022-12-10T14:53:00;2.90;89.90
44461;DHT22;30162;53.642;10.640;2022-12-10T14:55:27;2.80;89.50
44461;DHT22;30162;53.642;10.640;2022-12-10T14:57:58;2.80;90.30
44461;DHT22;30162;53.642;10.640;2022-12-10T15:00:24;2.80;90.00
44461;DHT22;30162;53.642;10.640;2022-12-10T15:05:21;2.80;90.10
44461;DHT22;30162;53.642;10.640;2022-12-10T15:07:55;3.00;90.20
44461;DHT22;30162;53.642;10.640;2022-12-10T15:10:31;3.00;90.00
44461;DHT22;30162;53.642;10.640;2022-12-10T15:12:57;3.00;90.00
44461;DHT22;30162;53.642;10.640;2022-12-10T15:15:41;3.00;90.00
44461;DHT22;30162;53.642;10.640;2022-12-10T15:20:53;3.10;90.20
44461;DHT22;30162;53.642;10.640;2022-12-10T15:28:28;3.00;90.20
44461;DHT22;30162;53.642;10.640;2022-12-10T15:31:13;3.20;90.00
44461;DHT22;30162;53.642;10.640;2022-12-10T15:33:48;3.10;88.00
44461;DHT22;30162;53.642;10.640;2022-12-10T15:36:27;2.90;88.20
44461;DHT22;30162;53.642;10.640;2022-12-10T15:38:54;2.80;89.00
44461;DHT22;30162;53.642;10.640;2022-12-10T15:41:38;2.70;89.60
44461;DHT22;30162;53.642;10.640;2022-12-10T15:44:54;2.70;89.90
44461;DHT22;30162;53.642;10.640;2022-12-10T15:49:34;3.00;89.80
44461;DHT22;30162;53.642;10.640;2022-12-10T15:52:00;2.90;88.90
44461;DHT22;30162;53.642;10.640;2022-12-10T15:54:37;2.90;89.00
44461;DHT22;30162;53.642;10.640;2022-12-10T15:57:24;3.00;88.30
44461;DHT22;30162;53.642;10.640;2022-12-10T15:59:52;3.00;86.70
44461;DHT22;30162;53.642;10.640;2022-12-10T16:05:14;2.80;87.80
44461;DHT22;30162;53.642;10.640;2022-12-10T16:07:41;2.90;88.40
44461;DHT22;30162;53.642;10.640;2022-12-10T16:10:08;2.90;88.00
44461;DHT22;30162;53.642;10.640;2022-12-10T16:12:35;3.00;88.00
44461;DHT22;30162;53.642;10.640;2022-12-10T16:15:02;3.00;87.40
44461;DHT22;30162;53.642;10.640;2022-12-10T16:17:29;2.90;87.70
44461;DHT22;30162;53.642;10.640;2022-12-10T16:20:10;3.00;88.10
44461;DHT22;30162;53.642;10.640;2022-12-10T16:22:38;3.00;88.60
44461;DHT22;30162;53.642;10.640;2022-12-10T16:25:04;2.90;87.70
44461;DHT22;30162;53.642;10.640;2022-12-10T16:27:30;2.90;88.10
44461;DHT22;30162;53.642;10.640;2022-12-10T16:29:58;2.80;87.90
44461;DHT22;30162;53.642;10.640;2022-12-10T16:32:23;2.80;87.70
44461;DHT22;30162;53.642;10.640;2022-12-10T16:34:49;2.80;88.40
44461;DHT22;30162;53.642;10.640;2022-12-10T16:37:15;2.60;88.40
44461;DHT22;30162;53.642;10.640;2022-12-10T16:39:41;2.60;88.80
44461;DHT22;30162;53.642;10.640;2022-12-10T16:42:10;2.60;89.00
44461;DHT22;30162;53.642;10.640;2022-12-10T16:44:36;2.70;88.70
44461;DHT22;30162;53.642;10.640;2022-12-10T16:47:11;2.70;88.50
44461;DHT22;30162;53.642;10.640;2022-12-10T16:49:37;2.60;88.80
44461;DHT22;30162;53.642;10.640;2022-12-10T16:52:03;2.70;89.00
44461;DHT22;30162;53.642;10.640;2022-12-10T16:54:29;3.00;88.30
44461;DHT22;30162;53.642;10.640;2022-12-10T16:56:55;3.10;88.80
44461;DHT22;30162;53.642;10.640;2022-12-10T16:59:20;3.30;87.70
44461;DHT22;30162;53.642;10.640;2022-12-10T17:01:46;3.40;87.20
44461;DHT22;30162;53.642;10.640;2022-12-10T17:04:12;3.20;87.00
44461;DHT22;30162;53.642;10.640;2022-12-10T17:06:37;3.40;87.40
44461;DHT22;30162;53.642;10.640;2022-12-10T17:09:03;3.30;87.80
44461;DHT22;30162;53.642;10.640;2022-12-10T17:11:36;3.20;87.20
44461;DHT22;30162;53.642;10.640;2022-12-10T17:16:49;3.30;87.60
44461;DHT22;30162;53.642;10.640;2022-12-10T17:19:15;3.30;87.50
44461;DHT22;30162;53.642;10.640;2022-12-10T17:21:41;3.30;86.70
44461;DHT22;30162;53.642;10.640;2022-12-10T17:24:07;3.40;87.00
44461;DHT22;30162;53.642;10.640;2022-12-10T17:26:35;3.30;86.70
44461;DHT22;30162;53.642;10.640;2022-12-10T17:29:24;3.40;86.00
44461;DHT22;30162;53.642;10.640;2022-12-10T17:31:50;3.20;86.30
44461;DHT22;30162;53.642;10.640;2022-12-10T17:34:15;3.20;87.20
44461;DHT22;30162;53.642;10.640;2022-12-10T17:36:42;3.30;86.30
44461;DHT22;30162;53.642;10.640;2022-12-10T17:39:19;3.20;86.40
44461;DHT22;30162;53.642;10.640;2022-12-10T17:41:45;3.10;84.90
44461;DHT22;30162;53.642;10.640;2022-12-10T17:44:10;3.00;85.90
44461;DHT22;30162;53.642;10.640;2022-12-10T17:46:37;3.10;86.40
44461;DHT22;30162;53.642;10.640;2022-12-10T17:49:03;3.40;85.80
44461;DHT22;30162;53.642;10.640;2022-12-10T17:51:30;3.20;85.40
44461;DHT22;30162;53.642;10.640;2022-12-10T17:53:57;3.50;85.70
44461;DHT22;30162;53.642;10.640;2022-12-10T17:56:25;3.30;86.10
44461;DHT22;30162;53.642;10.640;2022-12-10T17:58:53;3.20;85.90
44461;DHT22;30162;53.642;10.640;2022-12-10T18:01:19;3.50;86.50